createdAt,value
2023-03-24T00:00:28.448Z,10.80
2023-03-24T00:02:56.808Z,8.20
2023-03-24T00:05:24.224Z,7.40
2023-03-24T00:10:23.053Z,7.60
2023-03-24T00:12:51.237Z,7.60
2023-03-24T00:15:21.284Z,7.60
2023-03-24T00:17:52.700Z,6.70
2023-03-24T00:20:22.528Z,6.70
2023-03-24T00:22:57.165Z,7.90
2023-03-24T00:25:34.126Z,7.40
2023-03-24T00:28:01.639Z,5.90
2023-03-24T00:30:29.573Z,7.70
2023-03-24T00:32:59.318Z,7.20
2023-03-24T00:35:26.570Z,5.80
2023-03-24T00:37:53.785Z,5.10
2023-03-24T00:40:22.349Z,5.40
2023-03-24T00:42:50.892Z,6.40
2023-03-24T00:45:23.545Z,6.10
2023-03-24T00:47:54.792Z,5.80
2023-03-24T00:50:33.872Z,6.40
2023-03-24T00:53:02.324Z,7.00
2023-03-24T00:55:29.283Z,6.50
2023-03-24T00:57:56.538Z,5.50
2023-03-24T01:00:26.416Z,7.10
2023-03-24T01:02:56.479Z,9.90
2023-03-24T01:05:28.325Z,6.50
2023-03-24T01:07:57.925Z,8.40
2023-03-24T01:10:27.375Z,5.90
2023-03-24T01:13:00.234Z,6.80
2023-03-24T01:15:33.684Z,6.20
2023-03-24T01:18:04.660Z,9.00
2023-03-24T01:20:35.858Z,6.30
2023-03-24T01:23:08.156Z,9.20
2023-03-24T01:25:37.534Z,6.40
2023-03-24T01:28:05.030Z,9.50
2023-03-24T01:30:32.344Z,7.10
2023-03-24T01:32:59.320Z,8.60
2023-03-24T01:35:29.280Z,6.90
2023-03-24T01:37:58.142Z,7.80
2023-03-24T01:40:29.408Z,6.80
2023-03-24T01:42:57.525Z,6.00
2023-03-24T01:46:09.327Z,8.80
2023-03-24T01:48:39.228Z,7.50
2023-03-24T01:51:15.075Z,6.50
2023-03-24T01:53:52.017Z,8.10
2023-03-24T01:56:19.713Z,8.80
2023-03-24T01:58:56.706Z,7.50
2023-03-24T02:01:39.690Z,6.30
2023-03-24T02:04:39.291Z,6.00
2023-03-24T02:07:15.877Z,6.10
2023-03-24T02:09:42.940Z,7.30
2023-03-24T02:12:09.771Z,6.70
2023-03-24T02:14:37.446Z,6.70
2023-03-24T02:17:19.633Z,6.90
2023-03-24T02:20:12.732Z,6.30
2023-03-24T02:22:42.644Z,7.40
2023-03-24T02:28:04.850Z,8.50
2023-03-24T02:30:50.207Z,8.20
2023-03-24T02:33:39.208Z,8.20
2023-03-24T02:36:15.747Z,9.10
2023-03-24T02:39:02.195Z,7.90
2023-03-24T02:41:47.526Z,6.70
2023-03-24T02:44:53.456Z,7.10
2023-03-24T02:47:29.682Z,7.00
2023-03-24T02:50:29.373Z,7.70
2023-03-24T02:53:03.893Z,9.20
2023-03-24T02:55:43.540Z,7.90
2023-03-24T02:58:23.628Z,8.70
2023-03-24T03:01:03.153Z,8.20
2023-03-24T03:03:57.485Z,10.40
2023-03-24T03:06:31.424Z,8.10
2023-03-24T03:09:05.183Z,9.30
2023-03-24T03:11:32.615Z,7.40
2023-03-24T03:14:04.342Z,9.60
2023-03-24T03:16:43.512Z,13.10
2023-03-24T03:19:32.347Z,12.60
2023-03-24T03:22:00.878Z,12.70
2023-03-24T03:24:35.228Z,14.90
2023-03-24T03:27:08.478Z,13.80
2023-03-24T03:29:40.488Z,17.10
2023-03-24T03:32:13.008Z,13.80
2023-03-24T03:34:48.762Z,13.50
2023-03-24T03:37:39.827Z,12.20
2023-03-24T03:40:27.919Z,12.90
2023-03-24T03:42:58.861Z,10.80
2023-03-24T03:45:26.024Z,10.20
2023-03-24T03:47:53.760Z,10.50
2023-03-24T03:50:20.645Z,10.50
2023-03-24T03:52:48.133Z,9.00
2023-03-24T03:55:15.046Z,11.00
2023-03-24T03:57:43.173Z,10.20
2023-03-24T04:00:20.032Z,11.40
2023-03-24T04:06:02.260Z,14.60
2023-03-24T04:08:51.107Z,13.00
2023-03-24T04:11:52.045Z,15.60
2023-03-24T04:15:11.291Z,13.50
2023-03-24T04:18:06.413Z,13.00
2023-03-24T04:21:13.907Z,14.50
2023-03-24T04:23:41.063Z,12.30
2023-03-24T04:26:46.256Z,14.00
2023-03-24T04:29:13.117Z,16.40
2023-03-24T04:32:07.694Z,16.10
2023-03-24T04:34:45.694Z,13.50
2023-03-24T04:37:32.839Z,13.40
2023-03-24T04:40:13.242Z,15.00
2023-03-24T04:42:53.607Z,16.50
2023-03-24T04:45:35.676Z,14.00
2023-03-24T04:48:20.482Z,18.70
2023-03-24T04:51:09.294Z,23.50
2023-03-24T04:54:02.090Z,22.20
2023-03-24T04:56:57.126Z,25.90
2023-03-24T04:59:34.823Z,24.60
2023-03-24T05:02:03.813Z,24.80
2023-03-24T05:04:37.800Z,22.50
2023-03-24T05:07:11.647Z,19.50
2023-03-24T05:09:38.909Z,18.60
2023-03-24T05:12:06.394Z,18.00
2023-03-24T05:14:43.417Z,22.40
2023-03-24T05:17:10.439Z,19.90
2023-03-24T05:19:38.088Z,19.50
2023-03-24T05:22:05.325Z,27.20
2023-03-24T05:24:32.224Z,24.20
2023-03-24T05:26:59.085Z,25.90
2023-03-24T05:29:27.257Z,21.90
2023-03-24T05:31:54.526Z,24.30
2023-03-24T05:34:22.882Z,24.50
2023-03-24T05:37:14.523Z,19.40
2023-03-24T05:39:42.020Z,23.00
2023-03-24T05:42:17.823Z,22.90
2023-03-24T05:44:45.857Z,20.50
2023-03-24T05:47:20.326Z,26.10
2023-03-24T05:49:47.304Z,23.60
2023-03-24T05:52:17.602Z,21.70
2023-03-24T05:54:46.188Z,22.20
2023-03-24T05:57:20.799Z,27.60
2023-03-24T06:00:15.395Z,24.00
2023-03-24T06:02:45.562Z,24.40
2023-03-24T06:05:32.832Z,30.60
2023-03-24T06:08:01.582Z,22.20
2023-03-24T06:10:30.492Z,22.20
2023-03-24T06:12:57.821Z,21.60
2023-03-24T06:15:28.104Z,168.30
2023-03-24T06:17:58.493Z,501.20
2023-03-24T06:20:34.563Z,206.20
2023-03-24T06:23:06.343Z,189.50
2023-03-24T06:25:44.789Z,202.70
2023-03-24T06:28:34.738Z,42.50
2023-03-24T06:31:06.758Z,57.30
2023-03-24T06:33:35.705Z,17.50
2023-03-24T06:36:04.470Z,28.80
2023-03-24T06:38:32.264Z,34.70
2023-03-24T06:41:03.786Z,38.60
2023-03-24T06:43:31.718Z,30.60
2023-03-24T06:45:59.209Z,54.60
2023-03-24T06:48:27.990Z,47.60
2023-03-24T06:51:00.646Z,68.40
2023-03-24T06:53:27.709Z,35.10
2023-03-24T06:55:54.778Z,26.50
2023-03-24T06:58:23.858Z,29.90
2023-03-24T07:01:01.953Z,45.10
2023-03-24T07:03:33.469Z,29.70
2023-03-24T07:06:20.408Z,21.50
2023-03-24T07:08:53.611Z,35.30
2023-03-24T07:11:21.970Z,21.40
2023-03-24T07:13:52.196Z,29.10
2023-03-24T07:16:19.336Z,25.00
2023-03-24T07:18:48.556Z,102.30
2023-03-24T07:21:15.799Z,21.30
2023-03-24T07:23:42.971Z,41.60
2023-03-24T07:28:49.390Z,17.10
2023-03-24T07:31:42.327Z,16.70
2023-03-24T07:34:11.536Z,16.10
2023-03-24T07:36:39.627Z,14.90
2023-03-24T07:39:09.718Z,14.60
2023-03-24T07:41:37.182Z,13.80
2023-03-24T07:44:09.412Z,13.60
2023-03-24T07:47:05.667Z,12.10
2023-03-24T07:49:32.925Z,13.30
2023-03-24T07:52:06.841Z,13.40
2023-03-24T07:54:45.392Z,12.40
2023-03-24T07:57:23.479Z,13.80
2023-03-24T07:59:50.757Z,12.60
2023-03-24T08:02:36.273Z,20.30
2023-03-24T08:05:23.909Z,16.80
2023-03-24T08:08:02.739Z,16.00
2023-03-24T08:10:31.216Z,17.80
2023-03-24T08:12:58.929Z,17.30
2023-03-24T08:15:27.384Z,14.60
2023-03-24T08:17:56.933Z,14.90
2023-03-24T08:20:28.656Z,14.50
2023-03-24T08:22:56.034Z,16.40
2023-03-24T08:25:26.159Z,20.50
2023-03-24T08:27:53.391Z,16.90
2023-03-24T08:30:23.225Z,21.40
2023-03-24T08:32:55.763Z,14.20
2023-03-24T08:35:34.362Z,38.60
2023-03-24T08:38:06.169Z,34.20
2023-03-24T08:40:35.063Z,32.00
2023-03-24T08:43:04.863Z,19.80
2023-03-24T08:45:33.185Z,26.00
2023-03-24T08:48:04.296Z,20.60
2023-03-24T08:50:35.456Z,21.30
2023-03-24T08:53:03.740Z,20.00
2023-03-24T08:55:32.485Z,38.10
2023-03-24T08:58:00.200Z,31.60
2023-03-24T09:00:29.087Z,21.80
2023-03-24T09:02:56.742Z,13.10
2023-03-24T09:05:40.955Z,15.70
2023-03-24T09:08:12.958Z,22.10
2023-03-24T09:10:41.305Z,14.40
2023-03-24T09:13:08.468Z,11.30
2023-03-24T09:15:38.269Z,11.40
2023-03-24T09:18:05.511Z,19.00
2023-03-24T09:20:32.451Z,12.90
2023-03-24T09:22:59.420Z,11.80
2023-03-24T09:25:26.516Z,12.80
2023-03-24T09:27:53.477Z,10.90
2023-03-24T09:30:25.249Z,13.00
2023-03-24T09:32:52.155Z,11.40
2023-03-24T09:35:19.430Z,9.70
2023-03-24T09:37:46.901Z,10.90
2023-03-24T09:40:25.800Z,11.10
2023-03-24T09:43:17.711Z,10.10
2023-03-24T09:45:51.630Z,10.60
2023-03-24T09:48:29.456Z,10.30
2023-03-24T09:51:06.802Z,8.80
2023-03-24T09:53:49.935Z,9.50
2023-03-24T09:56:21.056Z,7.90
2023-03-24T09:59:15.728Z,10.50
2023-03-24T10:01:42.698Z,8.20
2023-03-24T10:04:21.509Z,6.70
2023-03-24T10:06:53.570Z,8.70
2023-03-24T10:09:29.024Z,8.70
2023-03-24T10:11:56.132Z,11.40
2023-03-24T10:18:12.561Z,7.30
2023-03-24T10:20:55.505Z,6.90
2023-03-24T10:23:46.997Z,7.50
2023-03-24T10:26:26.704Z,7.30
2023-03-24T10:29:05.020Z,8.40
2023-03-24T10:31:35.059Z,7.20
2023-03-24T10:34:01.937Z,7.80
2023-03-24T10:36:29.425Z,9.60
2023-03-24T10:38:58.650Z,9.30
2023-03-24T10:41:29.648Z,6.70
2023-03-24T10:43:59.386Z,11.30
2023-03-24T10:46:30.093Z,10.40
2023-03-24T10:49:12.481Z,10.10
2023-03-24T10:51:41.486Z,8.20
2023-03-24T10:54:11.546Z,10.30
2023-03-24T10:56:45.339Z,13.60
2023-03-24T10:59:27.705Z,8.60
2023-03-24T11:02:10.005Z,10.60
2023-03-24T11:04:39.536Z,9.70
2023-03-24T11:07:23.019Z,11.60
2023-03-24T11:10:02.514Z,10.70
2023-03-24T11:12:31.954Z,11.40
2023-03-24T11:15:21.015Z,9.10
2023-03-24T11:17:57.759Z,10.50
2023-03-24T11:20:35.797Z,10.10
2023-03-24T11:23:20.925Z,10.80
2023-03-24T11:26:11.338Z,10.80
2023-03-24T11:28:43.294Z,13.00
2023-03-24T11:31:19.325Z,11.90
2023-03-24T11:34:09.116Z,13.80
2023-03-24T11:36:58.497Z,11.40
2023-03-24T11:39:27.761Z,12.10
2023-03-24T11:42:18.571Z,10.50
2023-03-24T11:44:49.941Z,9.80
2023-03-24T11:47:31.224Z,11.30
2023-03-24T11:50:10.417Z,10.30
2023-03-24T11:52:55.701Z,11.90
2023-03-24T11:56:06.397Z,10.30
2023-03-24T11:59:31.704Z,12.80
2023-03-24T12:02:21.183Z,13.30
2023-03-24T12:05:36.202Z,12.50
2023-03-24T12:08:27.387Z,11.50
2023-03-24T12:11:07.411Z,8.70
2023-03-24T12:13:51.773Z,8.90
2023-03-24T12:16:54.597Z,9.90
2023-03-24T12:19:27.926Z,8.60
2023-03-24T12:22:24.967Z,8.60
2023-03-24T12:25:38.323Z,9.50
2023-03-24T12:28:11.843Z,9.90
2023-03-24T12:31:06.900Z,10.40
2023-03-24T12:33:45.119Z,6.70
2023-03-24T12:36:17.887Z,13.30
2023-03-24T12:38:57.370Z,11.40
2023-03-24T12:41:30.075Z,10.80
2023-03-24T12:44:18.917Z,12.20
2023-03-24T12:47:18.698Z,9.10
2023-03-24T12:50:23.936Z,11.80
2023-03-24T12:53:16.444Z,10.70
2023-03-24T12:55:45.074Z,8.90
2023-03-24T12:58:21.209Z,8.90
2023-03-24T13:00:57.176Z,8.00
2023-03-24T13:03:35.517Z,8.60
2023-03-24T13:06:17.464Z,9.70
2023-03-24T13:08:52.928Z,7.70
2023-03-24T13:11:33.003Z,7.10
2023-03-24T13:14:05.041Z,8.10
2023-03-24T13:16:36.974Z,6.60
2023-03-24T13:19:09.568Z,8.30
2023-03-24T13:21:37.999Z,7.20
2023-03-24T13:24:11.048Z,5.30
2023-03-24T13:26:54.286Z,8.20
2023-03-24T13:29:49.132Z,5.50
2023-03-24T13:32:23.950Z,7.50
2023-03-24T13:35:35.268Z,5.40
2023-03-24T13:38:37.912Z,5.50
2023-03-24T13:41:08.823Z,6.00
2023-03-24T13:43:35.790Z,4.60
2023-03-24T13:46:10.848Z,5.60
2023-03-24T13:48:38.152Z,5.50
2023-03-24T13:51:17.205Z,4.00
2023-03-24T13:54:11.951Z,7.90
2023-03-24T13:56:42.802Z,4.50
2023-03-24T13:59:24.591Z,4.70
2023-03-24T14:02:20.867Z,4.70
2023-03-24T14:05:07.338Z,5.00
2023-03-24T14:07:40.136Z,4.60
2023-03-24T14:10:21.032Z,4.80
2023-03-24T14:13:02.299Z,5.60
2023-03-24T14:15:44.883Z,4.60
2023-03-24T14:18:24.026Z,4.90
2023-03-24T14:20:56.995Z,3.30
2023-03-24T14:23:29.911Z,4.40
2023-03-24T14:25:57.058Z,5.30
2023-03-24T14:28:46.867Z,5.10
2023-03-24T14:33:52.824Z,4.60
2023-03-24T14:36:30.708Z,4.10
2023-03-24T14:39:14.084Z,3.50
2023-03-24T14:41:44.421Z,3.90
2023-03-24T14:44:11.824Z,4.70
2023-03-24T14:46:44.888Z,5.50
2023-03-24T14:49:26.085Z,5.60
2023-03-24T14:52:12.957Z,4.10
2023-03-24T14:54:53.768Z,3.60
2023-03-24T14:57:34.734Z,5.00
2023-03-24T15:00:09.255Z,3.80
2023-03-24T15:02:41.562Z,3.70
2023-03-24T15:05:17.520Z,7.80
2023-03-24T15:07:46.762Z,7.50
2023-03-24T15:10:18.508Z,15.30
2023-03-24T15:12:47.544Z,5.00
2023-03-24T15:15:17.459Z,42.40
2023-03-24T15:20:28.349Z,23.50
2023-03-24T15:22:56.198Z,12.40
2023-03-24T15:25:31.169Z,6.10
2023-03-24T15:27:58.558Z,4.20
2023-03-24T15:30:29.041Z,3.80
2023-03-24T15:32:56.179Z,5.80
2023-03-24T15:35:24.524Z,56.00
2023-03-24T15:37:57.160Z,45.80
2023-03-24T15:40:27.166Z,11.90
2023-03-24T15:42:59.333Z,12.30
2023-03-24T15:45:35.994Z,6.70
2023-03-24T15:48:11.539Z,5.10
2023-03-24T15:50:41.382Z,5.60
2023-03-24T15:53:14.263Z,8.60
2023-03-24T15:55:43.419Z,5.60
2023-03-24T15:58:23.075Z,6.90
2023-03-24T16:00:53.615Z,4.20
2023-03-24T16:03:26.921Z,4.80
2023-03-24T16:05:56.801Z,4.60
2023-03-24T16:08:27.717Z,4.50
2023-03-24T16:11:05.396Z,4.70
2023-03-24T16:13:32.356Z,4.70
2023-03-24T16:16:37.941Z,6.70
2023-03-24T16:19:05.006Z,4.90
2023-03-24T16:21:32.802Z,6.20
2023-03-24T16:24:00.884Z,5.80
2023-03-24T16:26:33.043Z,5.50
2023-03-24T16:29:17.126Z,10.20
2023-03-24T16:31:49.262Z,6.80
2023-03-24T16:34:18.909Z,6.50
2023-03-24T16:36:47.515Z,7.50
2023-03-24T16:39:18.234Z,7.30
2023-03-24T16:41:46.004Z,8.50
2023-03-24T16:44:13.630Z,8.70
2023-03-24T16:46:41.661Z,5.30
2023-03-24T16:49:13.168Z,6.80
2023-03-24T16:51:40.742Z,6.70
2023-03-24T16:54:09.260Z,9.80
2023-03-24T16:56:37.630Z,9.60
2023-03-24T16:59:05.652Z,8.10
2023-03-24T17:01:45.503Z,18.30
2023-03-24T17:04:19.470Z,7.90
2023-03-24T17:06:54.691Z,9.60
2023-03-24T17:09:22.304Z,19.40
2023-03-24T17:11:55.798Z,15.60
2023-03-24T17:14:23.562Z,24.40
2023-03-24T17:16:53.043Z,32.40
2023-03-24T17:19:22.602Z,28.10
2023-03-24T17:22:07.233Z,31.30
2023-03-24T17:24:41.869Z,33.90
2023-03-24T17:27:18.987Z,10.20
2023-03-24T17:29:46.668Z,12.00
2023-03-24T17:32:13.531Z,11.40
2023-03-24T17:34:45.785Z,6.50
2023-03-24T17:37:12.740Z,9.60
2023-03-24T17:39:40.830Z,6.80
2023-03-24T17:42:08.098Z,8.80
2023-03-24T17:44:35.448Z,20.50
2023-03-24T17:47:02.523Z,23.00
2023-03-24T17:49:29.629Z,11.80
2023-03-24T17:51:56.592Z,13.70
2023-03-24T17:54:25.523Z,11.20
2023-03-24T17:56:52.548Z,7.70
2023-03-24T17:59:19.745Z,9.40
2023-03-24T18:01:47.714Z,9.90
2023-03-24T18:04:14.755Z,8.60
2023-03-24T18:06:42.597Z,9.60
2023-03-24T18:09:09.939Z,10.40
2023-03-24T18:11:36.871Z,9.60
2023-03-24T18:14:03.859Z,8.60
2023-03-24T18:16:31.140Z,11.90
2023-03-24T18:18:58.741Z,11.10
2023-03-24T18:21:25.928Z,10.50
2023-03-24T18:23:52.860Z,14.80
2023-03-24T18:26:19.906Z,17.30
2023-03-24T18:28:46.999Z,18.80
2023-03-24T18:31:21.766Z,41.80
2023-03-24T18:33:50.482Z,49.10
2023-03-24T18:36:26.769Z,59.50
2023-03-24T18:39:02.512Z,26.70
2023-03-24T18:41:30.618Z,55.20
2023-03-24T18:43:59.549Z,47.60
2023-03-24T18:46:27.574Z,34.00
2023-03-24T18:48:54.856Z,33.10
2023-03-24T18:51:23.347Z,55.10
2023-03-24T18:53:50.641Z,32.90
2023-03-24T18:56:18.914Z,51.80
2023-03-24T18:58:51.191Z,57.60
2023-03-24T19:01:23.187Z,65.90
2023-03-24T19:03:52.203Z,61.20
2023-03-24T19:06:20.110Z,71.00
2023-03-24T19:08:51.753Z,70.30
2023-03-24T19:11:19.301Z,57.40
2023-03-24T19:13:49.886Z,143.00
2023-03-24T19:16:19.058Z,46.40
2023-03-24T19:18:48.697Z,38.00
2023-03-24T19:21:17.086Z,73.30
2023-03-24T19:23:45.237Z,37.20
2023-03-24T19:26:13.511Z,41.70
2023-03-24T19:28:41.442Z,135.50
2023-03-24T19:31:11.222Z,59.60
2023-03-24T19:33:38.725Z,15.40
2023-03-24T19:36:07.633Z,19.60
2023-03-24T19:38:36.130Z,35.80
2023-03-24T19:41:09.427Z,44.30
2023-03-24T19:43:36.969Z,17.20
2023-03-24T19:46:05.833Z,20.60
2023-03-24T19:48:33.778Z,48.70
2023-03-24T19:51:00.686Z,32.10
2023-03-24T19:53:27.752Z,25.60
2023-03-24T19:55:58.857Z,35.30
2023-03-24T19:58:26.179Z,13.70
2023-03-24T20:00:54.824Z,30.50
2023-03-24T20:03:22.056Z,15.20
2023-03-24T20:05:49.634Z,12.40
2023-03-24T20:08:19.328Z,12.40
2023-03-24T20:10:46.653Z,15.20
2023-03-24T20:13:14.294Z,12.90
2023-03-24T20:15:41.329Z,12.10
2023-03-24T20:18:10.401Z,13.90
2023-03-24T20:20:39.598Z,15.50
2023-03-24T20:23:06.791Z,14.10
2023-03-24T20:25:33.702Z,12.40
2023-03-24T20:28:01.495Z,14.90
2023-03-24T20:30:30.437Z,15.80
2023-03-24T20:32:57.543Z,17.00
2023-03-24T20:35:25.968Z,16.80
2023-03-24T20:37:53.001Z,15.20
2023-03-24T20:40:20.986Z,14.70
2023-03-24T20:42:49.660Z,16.60
2023-03-24T20:45:16.922Z,14.60
2023-03-24T20:47:43.814Z,15.80
2023-03-24T20:50:11.127Z,15.70
2023-03-24T20:52:38.150Z,16.20
2023-03-24T20:55:06.561Z,18.60
2023-03-24T20:57:34.552Z,15.80
2023-03-24T21:00:02.388Z,15.90
2023-03-24T21:02:31.904Z,17.60
2023-03-24T21:04:58.924Z,19.80
2023-03-24T21:07:27.027Z,20.90
2023-03-24T21:09:53.937Z,22.30
2023-03-24T21:12:22.004Z,22.20
2023-03-24T21:14:49.486Z,21.10
2023-03-24T21:17:20.780Z,19.20
2023-03-24T21:19:47.620Z,18.90
2023-03-24T21:22:15.645Z,19.40
2023-03-24T21:24:42.918Z,20.70
2023-03-24T21:27:09.929Z,19.40
2023-03-24T21:29:36.886Z,16.50
2023-03-24T21:32:03.947Z,16.90
2023-03-24T21:34:31.701Z,18.60
2023-03-24T21:37:01.639Z,16.50
2023-03-24T21:39:29.272Z,17.40
2023-03-24T21:41:56.276Z,17.40
2023-03-24T21:44:23.535Z,16.00
2023-03-24T21:46:50.500Z,16.20
2023-03-24T21:49:19.176Z,16.70
2023-03-24T21:51:46.918Z,14.90
2023-03-24T21:54:16.206Z,16.00
2023-03-24T21:56:43.140Z,15.40
2023-03-24T21:59:11.470Z,15.30
2023-03-24T22:01:38.439Z,14.90
2023-03-24T22:04:09.172Z,12.90
2023-03-24T22:06:38.166Z,15.20
2023-03-24T22:09:07.092Z,16.40
2023-03-24T22:11:35.348Z,14.00
2023-03-24T22:14:02.566Z,8.50
2023-03-24T22:16:29.956Z,8.50
2023-03-24T22:18:57.390Z,9.10
2023-03-24T22:21:24.387Z,9.50
2023-03-24T22:23:51.667Z,10.40
2023-03-24T22:26:18.755Z,8.30
2023-03-24T22:28:45.913Z,8.30
2023-03-24T22:31:16.438Z,7.70
2023-03-24T22:33:44.414Z,10.60
2023-03-24T22:36:12.112Z,8.50
2023-03-24T22:38:39.370Z,8.10
2023-03-24T22:41:08.433Z,8.10
2023-03-24T22:43:36.042Z,8.70
2023-03-24T22:46:03.776Z,8.60
2023-03-24T22:48:31.594Z,7.50
2023-03-24T22:50:58.989Z,7.80
2023-03-24T22:53:26.099Z,8.10
2023-03-24T22:55:53.720Z,7.90
2023-03-24T22:58:23.446Z,8.50
2023-03-24T23:00:55.998Z,7.30
2023-03-24T23:03:23.095Z,8.00
2023-03-24T23:05:50.397Z,6.60
2023-03-24T23:08:17.436Z,8.40
2023-03-24T23:10:45.691Z,8.80
2023-03-24T23:13:13.713Z,8.90
2023-03-24T23:15:49.426Z,7.90
2023-03-24T23:18:17.051Z,8.00
2023-03-24T23:20:44.651Z,10.80
2023-03-24T23:23:12.271Z,8.80
2023-03-24T23:25:45.528Z,8.40
2023-03-24T23:28:13.244Z,7.50
2023-03-24T23:30:41.516Z,8.10
2023-03-24T23:33:09.161Z,9.40
2023-03-24T23:35:37.790Z,9.00
2023-03-24T23:38:06.878Z,10.00
2023-03-24T23:40:33.787Z,10.00
2023-03-24T23:43:02.039Z,8.00
2023-03-24T23:45:28.983Z,8.70
2023-03-24T23:47:56.398Z,8.60
2023-03-24T23:50:23.920Z,10.70
2023-03-24T23:52:50.858Z,12.50
2023-03-24T23:55:18.347Z,9.10
2023-03-24T23:57:46.758Z,10.00
